Time;durP1;ratioP1;P1;durP2;ratioP2;P2;SDS_P1;SDS_P2;PMS_P1;PMS_P2;Temp;Humidity;BMP_temperature;BMP_pressure;BME280_temperature;BME280_humidity;BME280_pressure;Samples;Min_cycle;Max_cycle;Signal;HPM_P1;HPM_P2
2021/10/29 00:00:37;;;;;;;36.33;14.93;;;6.40;99.90;;;;;;4978715;28;20022;-68
2021/10/29 00:03:06;;;;;;;32.22;14.57;;;6.40;99.90;;;;;;4979011;28;20054;-68
2021/10/29 00:05:35;;;;;;;33.47;15.57;;;6.40;99.90;;;;;;4979575;28;20420;-69
2021/10/29 00:08:04;;;;;;;32.60;14.15;;;6.40;99.90;;;;;;4979968;28;20026;-68
2021/10/29 00:10:32;;;;;;;35.17;15.18;;;6.40;99.90;;;;;;4979480;28;20027;-68
2021/10/29 00:13:00;;;;;;;30.95;14.73;;;6.40;99.90;;;;;;4979960;28;20315;-68
2021/10/29 00:15:28;;;;;;;37.55;15.55;;;6.40;99.90;;;;;;4979385;28;20053;-68
2021/10/29 00:17:56;;;;;;;38.90;13.98;;;6.40;99.90;;;;;;4979326;28;20029;-68
2021/10/29 00:20:24;;;;;;;34.17;14.93;;;6.40;99.90;;;;;;4979465;28;20438;-68
2021/10/29 00:22:51;;;;;;;38.75;14.77;;;6.40;99.90;;;;;;4979030;28;20026;-68
2021/10/29 00:25:19;;;;;;;30.50;13.90;;;6.40;99.90;;;;;;4961101;28;20312;-68
2021/10/29 00:27:47;;;;;;;35.22;15.48;;;6.50;99.90;;;;;;4978846;28;20023;-68
2021/10/29 00:30:14;;;;;;;32.33;14.20;;;6.50;99.90;;;;;;4978798;28;20030;-68
2021/10/29 00:32:42;;;;;;;38.55;14.73;;;6.50;99.90;;;;;;4978051;28;20455;-68
2021/10/29 00:35:10;;;;;;;32.70;14.75;;;6.50;99.90;;;;;;4978345;28;20082;-68
2021/10/29 00:37:38;;;;;;;36.92;14.60;;;6.40;99.90;;;;;;4978640;28;20029;-68
2021/10/29 00:40:09;;;;;;;35.17;14.60;;;6.40;99.90;;;;;;4957651;29;20340;-68
2021/10/29 00:42:37;;;;;;;36.38;14.65;;;6.40;99.90;;;;;;4959204;28;20032;-68
2021/10/29 00:45:06;;;;;;;34.83;14.95;;;6.40;99.90;;;;;;4958769;29;20015;-69
2021/10/29 00:47:33;;;;;;;40.63;14.90;;;6.30;99.90;;;;;;4959838;28;20019;-68
2021/10/29 00:50:02;;;;;;;39.83;15.55;;;6.30;99.90;;;;;;4959685;29;20419;-68
2021/10/29 00:52:29;;;;;;;41.33;15.73;;;6.20;99.90;;;;;;4959486;29;20027;-68
2021/10/29 00:54:57;;;;;;;40.40;15.82;;;6.30;99.90;;;;;;4958484;29;20083;-68
2021/10/29 00:57:25;;;;;;;43.10;14.73;;;6.30;99.90;;;;;;4959911;29;20023;-68
2021/10/29 00:59:53;;;;;;;40.65;15.68;;;6.30;99.90;;;;;;4960086;29;20026;-68
2021/10/29 01:02:20;;;;;;;40.90;15.68;;;6.30;99.90;;;;;;4959804;28;20019;-68
2021/10/29 01:04:48;;;;;;;36.55;16.38;;;6.30;99.90;;;;;;4959870;29;20019;-68
2021/10/29 01:07:15;;;;;;;37.47;15.75;;;6.30;99.90;;;;;;4957362;29;20439;-68
2021/10/29 01:09:42;;;;;;;35.83;13.65;;;6.30;99.90;;;;;;4959113;29;20082;-68
2021/10/29 01:12:10;;;;;;;38.30;14.75;;;6.30;99.90;;;;;;4958891;29;20373;-68
2021/10/29 01:14:38;;;;;;;39.63;14.88;;;6.30;99.90;;;;;;4957238;29;20037;-68
2021/10/29 01:17:05;;;;;;;37.50;14.40;;;6.30;99.90;;;;;;4958783;28;20064;-68
2021/10/29 01:19:34;;;;;;;33.05;14.48;;;6.30;99.90;;;;;;4958471;28;20483;-68
2021/10/29 01:22:03;;;;;;;32.25;14.50;;;6.20;99.90;;;;;;4957231;29;20031;-68
2021/10/29 01:24:31;;;;;;;36.75;14.35;;;6.10;99.90;;;;;;4958309;29;20028;-68
2021/10/29 01:26:58;;;;;;;36.83;14.70;;;6.10;99.90;;;;;;4958485;29;20322;-68
2021/10/29 01:29:26;;;;;;;43.40;15.25;;;6.00;99.90;;;;;;4958845;29;20031;-68
2021/10/29 01:31:53;;;;;;;36.30;15.13;;;5.90;99.90;;;;;;4959080;28;20031;-68
2021/10/29 01:34:21;;;;;;;31.40;14.48;;;5.90;99.90;;;;;;4959255;29;20027;-68
2021/10/29 01:36:49;;;;;;;38.17;14.48;;;5.80;99.90;;;;;;4959032;29;20031;-68
2021/10/29 01:39:17;;;;;;;41.78;15.93;;;5.70;99.90;;;;;;4961770;28;20347;-70
2021/10/29 01:41:45;;;;;;;43.28;16.40;;;5.70;99.90;;;;;;4978322;28;20023;-70
2021/10/29 01:44:13;;;;;;;43.70;16.40;;;5.70;99.90;;;;;;4980582;28;20110;-70
2021/10/29 01:46:40;;;;;;;51.60;18.05;;;5.70;99.90;;;;;;4982592;28;20031;-70
2021/10/29 01:49:08;;;;;;;56.35;17.80;;;5.70;99.90;;;;;;4964802;28;20030;-70
2021/10/29 01:51:35;;;;;;;52.05;17.98;;;5.70;99.90;;;;;;4981713;28;20062;-70
2021/10/29 01:54:03;;;;;;;57.80;19.15;;;5.70;99.90;;;;;;4981639;28;20027;-70
2021/10/29 01:56:31;;;;;;;45.33;17.38;;;5.80;99.90;;;;;;4980984;28;20054;-70
2021/10/29 01:58:59;;;;;;;44.30;16.80;;;5.80;99.90;;;;;;4981209;28;20030;-70
2021/10/29 02:01:27;;;;;;;46.67;16.58;;;5.80;99.90;;;;;;4981409;28;20101;-70
2021/10/29 02:03:55;;;;;;;45.28;16.63;;;5.80;99.90;;;;;;4980981;28;20107;-70
2021/10/29 02:06:23;;;;;;;40.08;16.63;;;5.80;99.90;;;;;;4980843;28;20023;-70
2021/10/29 02:08:51;;;;;;;47.03;16.80;;;5.70;99.90;;;;;;4981001;28;20023;-70
2021/10/29 02:11:18;;;;;;;48.22;16.35;;;5.70;99.90;;;;;;4980768;28;20030;-70
2021/10/29 02:13:45;;;;;;;45.63;16.88;;;5.70;99.90;;;;;;4964290;28;20443;-70
2021/10/29 02:16:13;;;;;;;46.63;17.83;;;5.60;99.90;;;;;;4981600;28;20109;-70
2021/10/29 02:18:40;;;;;;;40.25;16.58;;;5.60;99.90;;;;;;4981505;28;20118;-70
2021/10/29 02:21:08;;;;;;;51.05;16.58;;;5.60;99.90;;;;;;4981507;28;20046;-70
2021/10/29 02:23:36;;;;;;;48.97;16.38;;;5.60;99.90;;;;;;4982190;28;20106;-70
2021/10/29 02:26:04;;;;;;;45.58;15.02;;;5.60;99.90;;;;;;4982196;28;20022;-70
2021/10/29 02:28:31;;;;;;;38.63;14.30;;;5.60;99.90;;;;;;4981451;28;20019;-70
2021/10/29 02:30:58;;;;;;;45.95;16.50;;;5.50;99.90;;;;;;4981308;28;20039;-70
2021/10/29 02:33:26;;;;;;;46.60;16.00;;;5.50;99.90;;;;;;4980627;28;20371;-70
2021/10/29 02:35:54;;;;;;;44.30;15.93;;;5.40;99.90;;;;;;4980346;28;20074;-70
2021/10/29 02:38:21;;;;;;;44.38;16.58;;;5.40;99.90;;;;;;4980288;28;20324;-70
2021/10/29 02:40:49;;;;;;;45.80;16.83;;;5.40;99.90;;;;;;4979962;28;20357;-70
2021/10/29 02:43:17;;;;;;;54.00;18.08;;;5.40;99.90;;;;;;4980879;28;20081;-70
2021/10/29 02:45:45;;;;;;;53.72;17.40;;;5.40;99.90;;;;;;4980169;28;20030;-70
2021/10/29 02:48:12;;;;;;;60.95;19.33;;;5.40;99.90;;;;;;4980069;28;20085;-70
2021/10/29 02:50:40;;;;;;;53.42;16.77;;;5.50;99.90;;;;;;4980028;28;20038;-70
2021/10/29 02:53:08;;;;;;;57.30;17.27;;;5.60;99.90;;;;;;4980690;28;20070;-70
2021/10/29 02:55:36;;;;;;;64.47;19.35;;;5.60;99.90;;;;;;4979261;28;20030;-70
2021/10/29 02:58:04;;;;;;;58.45;18.95;;;5.70;99.90;;;;;;4981144;28;20320;-70
2021/10/29 03:00:32;;;;;;;60.05;18.10;;;5.80;99.90;;;;;;4981095;28;20023;-70
2021/10/29 03:03:00;;;;;;;52.40;18.77;;;5.90;99.90;;;;;;4980934;28;20050;-70
2021/10/29 03:05:28;;;;;;;62.53;19.90;;;6.00;99.90;;;;;;4981282;28;20376;-70
2021/10/29 03:07:55;;;;;;;74.40;19.38;;;6.10;99.90;;;;;;4964276;28;20349;-70
2021/10/29 03:10:22;;;;;;;52.13;18.55;;;6.20;99.90;;;;;;4980641;28;20026;-70
2021/10/29 03:12:50;;;;;;;52.13;17.30;;;6.40;99.90;;;;;;4981097;28;20027;-70
2021/10/29 03:15:17;;;;;;;51.20;16.90;;;6.50;99.90;;;;;;4980784;28;20019;-70
2021/10/29 03:17:45;;;;;;;40.33;15.18;;;6.60;99.90;;;;;;4979574;28;20019;-70
2021/10/29 03:20:12;;;;;;;47.15;17.00;;;6.60;99.90;;;;;;4980080;28;20023;-70
2021/10/29 03:22:39;;;;;;;45.58;16.45;;;6.60;99.90;;;;;;4962327;28;20023;-70
2021/10/29 03:25:08;;;;;;;45.67;16.88;;;6.70;99.90;;;;;;4980024;28;20316;-70
2021/10/29 03:27:35;;;;;;;48.25;18.15;;;6.70;99.90;;;;;;4979432;28;20023;-70
2021/10/29 03:30:05;;;;;;;44.35;17.70;;;6.70;99.90;;;;;;4979931;28;20041;-71
2021/10/29 03:32:32;;;;;;;47.72;18.83;;;6.70;99.90;;;;;;4979171;28;20371;-70
2021/10/29 03:35:00;;;;;;;43.92;16.38;;;6.70;99.90;;;;;;4979310;28;20415;-70
2021/10/29 03:37:50;;;;;;;46.40;17.45;;;6.80;99.90;;;;;;4979528;28;20034;-70
2021/10/29 03:43:13;;;;;;;45.60;17.40;;;6.80;99.90;;;;;;4980078;28;20029;-70
2021/10/29 03:45:53;;;;;;;47.42;18.40;;;6.80;99.90;;;;;;4980254;28;20362;-70
2021/10/29 03:48:33;;;;;;;43.25;15.45;;;6.90;99.90;;;;;;4980002;28;20412;-70
2021/10/29 03:51:10;;;;;;;40.47;15.27;;;6.90;99.90;;;;;;4980146;28;20058;-70
2021/10/29 03:53:45;;;;;;;46.05;18.35;;;7.00;99.90;;;;;;4979794;28;20066;-70
2021/10/29 03:56:25;;;;;;;54.40;19.30;;;7.00;99.90;;;;;;4980015;28;20023;-70
2021/10/29 03:58:56;;;;;;;45.38;17.48;;;7.00;99.90;;;;;;4978979;28;20015;-70
2021/10/29 04:01:24;;;;;;;45.47;16.98;;;7.00;99.90;;;;;;4978699;28;20442;-70
2021/10/29 04:03:51;;;;;;;47.53;18.95;;;7.00;99.90;;;;;;4978794;28;20081;-70
2021/10/29 04:06:18;;;;;;;51.67;20.05;;;7.00;99.90;;;;;;4978959;28;20026;-70
2021/10/29 04:08:46;;;;;;;47.45;19.38;;;7.00;99.90;;;;;;4979380;28;20026;-70
2021/10/29 04:11:14;;;;;;;45.20;19.17;;;7.00;99.90;;;;;;4979121;28;20029;-70
2021/10/29 04:13:44;;;;;;;46.53;18.60;;;7.00;99.90;;;;;;4979050;28;20445;-70
2021/10/29 04:16:11;;;;;;;42.83;19.10;;;7.00;99.90;;;;;;4979033;28;20046;-70
2021/10/29 04:18:39;;;;;;;44.97;17.48;;;7.00;99.90;;;;;;4978698;28;20026;-70
2021/10/29 04:21:07;;;;;;;39.45;17.05;;;7.00;99.90;;;;;;4978946;28;20105;-70
2021/10/29 04:23:34;;;;;;;42.65;17.83;;;7.00;99.90;;;;;;4962134;28;20023;-70
2021/10/29 04:26:02;;;;;;;49.67;17.55;;;7.00;99.90;;;;;;4979271;28;20115;-70
2021/10/29 04:28:29;;;;;;;43.83;18.10;;;7.00;99.90;;;;;;4962237;28;20027;-70
2021/10/29 04:30:59;;;;;;;45.92;19.80;;;7.00;99.90;;;;;;4979188;28;20029;-70
2021/10/29 04:33:27;;;;;;;46.85;17.73;;;7.00;99.90;;;;;;4978851;28;20442;-70
2021/10/29 04:35:54;;;;;;;47.88;17.67;;;6.90;99.90;;;;;;4979361;28;20046;-70
2021/10/29 04:38:22;;;;;;;46.05;17.02;;;6.90;99.90;;;;;;4979028;28;20034;-70
2021/10/29 04:40:50;;;;;;;38.45;16.85;;;6.90;99.90;;;;;;4978421;28;20043;-70
2021/10/29 04:43:18;;;;;;;47.15;17.05;;;6.90;99.90;;;;;;4961107;28;20388;-70
2021/10/29 04:45:45;;;;;;;45.00;18.75;;;6.90;99.90;;;;;;4978543;28;20023;-70
2021/10/29 04:48:13;;;;;;;54.45;19.70;;;6.90;99.90;;;;;;4978144;28;20451;-70
2021/10/29 04:50:41;;;;;;;45.50;19.23;;;6.90;99.90;;;;;;4977923;28;20027;-70
2021/10/29 04:53:10;;;;;;;48.83;18.50;;;6.90;99.90;;;;;;4978178;28;20035;-70
2021/10/29 04:55:39;;;;;;;46.20;19.05;;;6.90;99.90;;;;;;4977823;28;20027;-70
2021/10/29 04:58:08;;;;;;;47.00;19.13;;;6.90;99.90;;;;;;4977742;28;20019;-70
2021/10/29 05:00:36;;;;;;;48.22;18.27;;;6.90;99.90;;;;;;4977736;28;20420;-70
2021/10/29 05:03:06;;;;;;;52.80;20.10;;;6.90;99.90;;;;;;4961116;28;20489;-70
2021/10/29 05:05:36;;;;;;;52.05;21.30;;;6.90;99.90;;;;;;4978923;28;20027;-70
2021/10/29 05:08:08;;;;;;;52.42;18.77;;;6.90;99.90;;;;;;4961495;28;20030;-70
2021/10/29 05:10:36;;;;;;;49.70;20.77;;;6.90;99.90;;;;;;4978654;28;20371;-70
2021/10/29 05:13:04;;;;;;;59.55;22.30;;;6.90;99.90;;;;;;4978544;28;20031;-70
2021/10/29 05:15:32;;;;;;;57.65;22.90;;;7.00;99.90;;;;;;4978462;28;20078;-70
2021/10/29 05:18:01;;;;;;;55.90;22.23;;;7.00;99.90;;;;;;4977948;28;20055;-70
2021/10/29 05:20:29;;;;;;;64.43;23.17;;;7.00;99.90;;;;;;4978935;28;20310;-70
2021/10/29 05:22:56;;;;;;;56.05;20.42;;;6.90;99.90;;;;;;4978506;28;20085;-70
2021/10/29 05:25:24;;;;;;;55.55;21.80;;;6.90;99.90;;;;;;4977512;28;20027;-71
2021/10/29 05:27:51;;;;;;;62.65;22.27;;;7.00;99.90;;;;;;4977536;28;20018;-70
2021/10/29 05:30:18;;;;;;;53.55;22.88;;;7.00;99.90;;;;;;4977474;28;20114;-70
2021/10/29 05:32:45;;;;;;;60.88;22.38;;;7.00;99.90;;;;;;4977495;28;20106;-70
2021/10/29 05:35:14;;;;;;;55.05;24.20;;;7.00;99.90;;;;;;4978153;28;20065;-70
2021/10/29 05:37:41;;;;;;;64.65;23.42;;;7.00;99.90;;;;;;4960549;28;20030;-70
2021/10/29 05:40:09;;;;;;;61.65;23.63;;;7.00;99.90;;;;;;4977193;28;20109;-70
2021/10/29 05:42:36;;;;;;;53.10;22.02;;;7.00;99.90;;;;;;4977688;28;20159;-70
2021/10/29 05:45:06;;;;;;;55.55;22.60;;;6.90;99.90;;;;;;4978107;28;20307;-71
2021/10/29 05:47:34;;;;;;;54.05;22.05;;;6.90;99.90;;;;;;4978215;28;20073;-70
2021/10/29 05:50:04;;;;;;;53.05;21.17;;;7.00;99.90;;;;;;4961113;28;20023;-70
2021/10/29 05:52:36;;;;;;;57.83;23.87;;;7.00;99.90;;;;;;4962316;28;20023;-70
2021/10/29 05:55:14;;;;;;;61.35;24.85;;;6.90;99.90;;;;;;4978881;28;20047;-70
2021/10/29 05:57:48;;;;;;;59.85;23.75;;;6.90;99.90;;;;;;4978674;28;20412;-72
2021/10/29 06:00:27;;;;;;;60.67;24.20;;;6.80;99.90;;;;;;4978293;28;20106;-73
2021/10/29 06:02:56;;;;;;;54.42;22.70;;;6.80;99.90;;;;;;4978259;28;20124;-73
2021/10/29 06:05:23;;;;;;;57.97;23.58;;;6.80;99.90;;;;;;4960823;28;20063;-73
2021/10/29 06:07:51;;;;;;;61.05;21.52;;;6.80;99.90;;;;;;4960211;28;20177;-73
2021/10/29 06:10:20;;;;;;;67.13;24.35;;;6.80;99.90;;;;;;4977128;28;20023;-73
2021/10/29 06:12:48;;;;;;;62.63;21.67;;;6.80;99.90;;;;;;4977033;28;20034;-73
2021/10/29 06:15:16;;;;;;;57.67;22.65;;;6.80;99.90;;;;;;4960000;28;20026;-73
2021/10/29 06:17:45;;;;;;;53.50;21.80;;;6.80;99.90;;;;;;4977634;28;20025;-73
2021/10/29 06:20:13;;;;;;;56.33;22.48;;;6.80;99.90;;;;;;4977268;28;20416;-73
2021/10/29 06:25:12;;;;;;;79.05;32.78;;;6.80;99.90;;;;;;4977035;28;20047;-72
2021/10/29 06:30:30;;;;;;;59.65;23.40;;;6.80;99.90;;;;;;4949982;28;20043;-72
2021/10/29 06:32:58;;;;;;;63.83;23.92;;;6.80;99.90;;;;;;4981405;28;20082;-72
2021/10/29 06:35:29;;;;;;;63.20;23.10;;;6.80;99.90;;;;;;4981781;28;20114;-71
2021/10/29 06:37:58;;;;;;;61.35;22.27;;;6.80;99.90;;;;;;4981330;28;20023;-71
2021/10/29 06:40:28;;;;;;;58.25;21.92;;;6.90;99.90;;;;;;4981275;28;20078;-71
2021/10/29 06:43:00;;;;;;;57.67;23.55;;;6.90;99.90;;;;;;4981247;28;20431;-71
2021/10/29 06:45:56;;;;;;;55.60;22.38;;;6.90;99.90;;;;;;4981153;28;20027;-71
2021/10/29 07:05:01;;;;;;;62.47;24.40;;;7.00;99.90;;;;;;4980276;28;20085;-67
2021/10/29 07:40:41;;;;;;;45.53;19.42;;;7.50;99.90;;;;;;4979003;28;20046;-67
2021/10/29 07:43:14;;;;;;;38.50;17.67;;;7.60;99.90;;;;;;4978800;28;20034;-67
2021/10/29 07:45:43;;;;;;;45.13;18.60;;;7.60;99.90;;;;;;4979627;28;20026;-67
2021/10/29 07:48:11;;;;;;;39.58;17.02;;;7.70;99.90;;;;;;4962353;28;20331;-67
2021/10/29 07:50:38;;;;;;;38.65;16.90;;;7.70;99.90;;;;;;4979573;28;20031;-67
2021/10/29 07:53:06;;;;;;;42.72;18.73;;;7.80;99.90;;;;;;4979785;28;20111;-67
2021/10/29 07:55:33;;;;;;;33.40;16.90;;;7.80;99.90;;;;;;4979919;28;20082;-67
2021/10/29 07:58:03;;;;;;;40.13;18.00;;;7.90;99.90;;;;;;4980009;28;20415;-67
2021/10/29 08:00:32;;;;;;;35.63;16.45;;;7.90;99.90;;;;;;4979791;28;20023;-65
2021/10/29 08:03:05;;;;;;;35.67;17.33;;;8.00;99.90;;;;;;4963088;28;20054;-66
2021/10/29 08:05:36;;;;;;;40.83;17.83;;;8.00;99.90;;;;;;4979942;28;20367;-65
2021/10/29 08:08:07;;;;;;;34.03;16.35;;;8.00;99.90;;;;;;4979863;28;20027;-65
2021/10/29 08:10:35;;;;;;;37.05;17.85;;;8.10;99.90;;;;;;4980108;28;20026;-66
2021/10/29 08:13:04;;;;;;;39.28;18.23;;;8.10;99.90;;;;;;4979571;28;20109;-67
2021/10/29 08:15:35;;;;;;;32.25;16.10;;;8.20;99.90;;;;;;4979094;28;20025;-70
2021/10/29 08:18:05;;;;;;;36.03;15.90;;;8.30;99.90;;;;;;4978518;28;20050;-67
2021/10/29 08:20:37;;;;;;;35.15;17.63;;;8.30;99.90;;;;;;4979045;28;20058;-70
2021/10/29 08:23:10;;;;;;;34.13;17.42;;;8.30;99.90;;;;;;4978767;28;20023;-69
2021/10/29 08:25:39;;;;;;;34.08;16.13;;;8.40;99.90;;;;;;4978127;28;20034;-69
2021/10/29 08:28:07;;;;;;;31.90;15.75;;;8.40;99.90;;;;;;4961701;28;20121;-66
2021/10/29 08:30:34;;;;;;;34.05;16.10;;;8.50;99.90;;;;;;4961215;28;20089;-66
2021/10/29 08:33:02;;;;;;;31.45;16.30;;;8.50;99.90;;;;;;4978494;28;20047;-67
2021/10/29 08:35:29;;;;;;;34.83;16.05;;;8.60;99.90;;;;;;4978558;28;20022;-66
2021/10/29 08:37:57;;;;;;;30.02;15.73;;;8.60;99.90;;;;;;4979216;28;20395;-67
2021/10/29 08:40:25;;;;;;;34.08;16.08;;;8.70;99.90;;;;;;4958618;29;20397;-66
2021/10/29 08:42:53;;;;;;;35.30;15.93;;;8.70;99.90;;;;;;4960384;29;20031;-66
2021/10/29 08:45:20;;;;;;;33.88;17.13;;;8.90;99.90;;;;;;4960282;29;20130;-66
2021/10/29 08:47:49;;;;;;;30.10;16.45;;;9.00;99.90;;;;;;4959793;28;20019;-67
2021/10/29 08:50:18;;;;;;;33.03;16.02;;;9.10;99.90;;;;;;4959947;29;20031;-68
2021/10/29 08:52:49;;;;;;;31.02;14.98;;;9.20;99.90;;;;;;4958380;28;20073;-67
2021/10/29 08:55:25;;;;;;;35.85;15.45;;;9.20;99.90;;;;;;4959907;28;20068;-66
2021/10/29 08:57:54;;;;;;;30.80;14.30;;;9.30;99.90;;;;;;4958517;29;20031;-66
2021/10/29 09:00:27;;;;;;;31.88;15.20;;;9.40;99.90;;;;;;4958569;28;20158;-66
2021/10/29 09:11:34;;;;;;;25.67;13.55;;;9.60;99.90;;;;;;4943137;29;20039;-66
2021/10/29 09:31:26;;;;;;;23.23;11.70;;;9.90;99.90;;;;;;4959173;29;20034;-67
2021/10/29 09:34:05;;;;;;;24.33;12.68;;;10.00;99.90;;;;;;4959309;29;20024;-67
2021/10/29 09:36:34;;;;;;;21.42;12.23;;;10.00;99.90;;;;;;4958009;29;20029;-67
2021/10/29 09:39:09;;;;;;;22.33;11.65;;;10.00;99.90;;;;;;4959250;29;20048;-67
2021/10/29 09:41:38;;;;;;;22.00;11.87;;;10.10;99.90;;;;;;4957117;29;20039;-67
2021/10/29 09:44:10;;;;;;;22.13;11.68;;;10.10;99.90;;;;;;4958151;28;20066;-67
2021/10/29 09:46:55;;;;;;;19.67;11.10;;;10.20;99.90;;;;;;4958568;28;20030;-67
2021/10/29 09:49:31;;;;;;;19.35;10.43;;;10.20;99.90;;;;;;4958301;28;20027;-67
2021/10/29 09:54:56;;;;;;;18.85;9.70;;;10.40;99.90;;;;;;4957978;28;20031;-67
2021/10/29 09:57:27;;;;;;;17.67;10.27;;;10.50;99.90;;;;;;4958234;28;20086;-67
2021/10/29 09:59:56;;;;;;;15.82;8.77;;;10.60;99.90;;;;;;4958251;28;20078;-67
2021/10/29 10:02:25;;;;;;;17.25;7.90;;;10.80;99.90;;;;;;4959256;28;20019;-67
2021/10/29 10:04:55;;;;;;;14.65;7.82;;;10.90;99.90;;;;;;4960252;28;20082;-67
2021/10/29 10:07:33;;;;;;;12.13;7.75;;;11.20;99.90;;;;;;4963044;28;20031;-67
2021/10/29 10:10:03;;;;;;;12.73;7.45;;;11.40;99.90;;;;;;4962812;28;20031;-67
2021/10/29 10:12:35;;;;;;;15.00;7.18;;;11.50;99.90;;;;;;4961425;29;20469;-67
2021/10/29 10:15:06;;;;;;;13.73;7.80;;;11.70;99.90;;;;;;4962544;28;20035;-67
2021/10/29 10:17:34;;;;;;;14.70;8.57;;;11.80;99.90;;;;;;4962292;28;20392;-67
2021/10/29 10:20:04;;;;;;;15.43;9.23;;;11.90;99.90;;;;;;4960769;29;20034;-67
2021/10/29 10:22:41;;;;;;;15.15;8.25;;;12.10;99.90;;;;;;4961241;28;20031;-65
2021/10/29 10:25:28;;;;;;;14.63;7.68;;;12.20;99.90;;;;;;4961412;28;20035;-67
2021/10/29 10:45:07;;;;;;;17.35;8.75;;;12.50;99.90;;;;;;4981644;28;20035;-68
2021/10/29 10:47:43;;;;;;;14.63;7.10;;;12.50;99.90;;;;;;4980931;28;20031;-67
2021/10/29 10:50:21;;;;;;;13.25;7.22;;;12.50;99.90;;;;;;4980959;28;20034;-67
2021/10/29 10:53:11;;;;;;;13.63;7.20;;;12.50;99.90;;;;;;4980994;28;20022;-67
2021/10/29 10:56:25;;;;;;;14.07;6.63;;;12.50;99.90;;;;;;4981126;28;20300;-68
2021/10/29 10:59:36;;;;;;;10.80;7.10;;;12.50;99.90;;;;;;4980699;28;20030;-67
2021/10/29 11:11:03;;;;;;;14.82;6.55;;;12.40;99.90;;;;;;4979767;28;20030;-67
2021/10/29 11:13:44;;;;;;;13.20;6.85;;;12.40;99.90;;;;;;4979379;28;20031;-67
2021/10/29 11:16:30;;;;;;;14.48;7.20;;;12.30;99.90;;;;;;4978894;28;20019;-67
2021/10/29 11:19:15;;;;;;;10.85;6.63;;;12.30;99.90;;;;;;4980414;28;20026;-67
2021/10/29 11:21:55;;;;;;;14.50;7.72;;;12.30;99.90;;;;;;4979836;28;20023;-67
2021/10/29 11:24:49;;;;;;;13.88;7.40;;;12.30;99.90;;;;;;4980358;28;20416;-67
2021/10/29 11:27:19;;;;;;;13.30;8.07;;;12.40;99.90;;;;;;4977753;28;20074;-67
2021/10/29 11:29:48;;;;;;;13.88;7.63;;;12.40;99.90;;;;;;4981068;28;20101;-67
2021/10/29 11:32:20;;;;;;;11.40;6.25;;;12.50;99.90;;;;;;4980210;28;20085;-67
2021/10/29 11:34:58;;;;;;;12.93;6.75;;;12.50;99.90;;;;;;4980190;28;20054;-67
2021/10/29 11:37:36;;;;;;;14.23;6.90;;;12.60;99.90;;;;;;4980063;28;20054;-67
2021/10/29 11:40:06;;;;;;;11.73;7.03;;;12.60;99.90;;;;;;4979931;28;20070;-67
2021/10/29 11:42:34;;;;;;;11.32;7.10;;;12.70;99.90;;;;;;4980154;28;20324;-67
2021/10/29 11:45:03;;;;;;;12.50;7.35;;;12.70;99.90;;;;;;4979499;28;20027;-67
2021/10/29 11:47:32;;;;;;;12.30;6.78;;;12.80;99.90;;;;;;4979014;28;20146;-67
2021/10/29 11:50:12;;;;;;;12.18;6.95;;;12.90;99.90;;;;;;4979214;28;20050;-66
2021/10/29 11:52:42;;;;;;;11.93;7.68;;;12.90;99.90;;;;;;4979283;28;20323;-67
2021/10/29 11:55:34;;;;;;;13.52;6.82;;;13.00;99.90;;;;;;4978948;28;20125;-66
2021/10/29 11:58:13;;;;;;;12.52;6.72;;;13.10;99.90;;;;;;4964430;28;20019;-67
2021/10/29 12:00:53;;;;;;;10.50;6.63;;;13.10;99.90;;;;;;4979465;28;20046;-67
2021/10/29 12:07:13;;;;;;;9.93;6.57;;;13.20;99.90;;;;;;4978848;28;20498;-72
2021/10/29 12:09:31;;;;;;;11.45;6.25;;;13.20;99.90;;;;;;4978892;28;20041;-67
2021/10/29 12:12:11;;;;;;;11.95;5.65;;;13.30;99.90;;;;;;4962565;28;20490;-67
2021/10/29 12:14:44;;;;;;;10.48;6.30;;;13.30;99.90;;;;;;4979225;28;20462;-67
2021/10/29 12:17:41;;;;;;;12.73;6.43;;;13.40;99.90;;;;;;4979977;28;20019;-68
2021/10/29 12:20:18;;;;;;;9.15;6.10;;;13.50;99.90;;;;;;4979217;28;20102;-68
2021/10/29 12:22:47;;;;;;;10.57;6.28;;;13.60;99.90;;;;;;4979126;28;20027;-67
2021/10/29 12:28:15;;;;;;;9.88;5.95;;;13.80;99.90;;;;;;4978924;28;20033;-67
2021/10/29 12:30:52;;;;;;;12.80;6.38;;;13.90;99.90;;;;;;4978237;28;20034;-68
2021/10/29 13:01:58;;;;;;;9.48;5.00;;;14.40;99.90;;;;;;4924895;29;20036;-67
2021/10/29 13:04:38;;;;;;;8.02;4.38;;;14.40;99.90;;;;;;4940511;29;20043;-67
2021/10/29 13:07:06;;;;;;;7.95;4.63;;;14.40;99.90;;;;;;4940161;29;20031;-67
2021/10/29 13:09:37;;;;;;;10.98;4.63;;;14.40;99.90;;;;;;4939428;29;20027;-67
2021/10/29 13:12:26;;;;;;;7.70;4.53;;;14.40;99.90;;;;;;4939177;29;20062;-66
2021/10/29 13:14:59;;;;;;;5.57;3.35;;;14.50;99.90;;;;;;4939325;29;20433;-66
2021/10/29 13:17:38;;;;;;;7.85;4.47;;;14.50;99.90;;;;;;4939476;29;20369;-67
2021/10/29 13:20:42;;;;;;;6.70;3.95;;;14.60;99.90;;;;;;4939146;29;20059;-67
2021/10/29 13:28:41;;;;;;;9.05;4.47;;;14.70;99.90;;;;;;4939465;29;20035;-68
2021/10/29 13:34:29;;;;;;;8.93;4.53;;;14.70;99.90;;;;;;4940253;29;20091;-67
2021/10/29 13:51:01;;;;;;;9.73;5.22;;;14.50;99.90;;;;;;4981993;28;20118;-68
2021/10/29 13:53:39;;;;;;;7.85;4.75;;;14.40;99.90;;;;;;4981700;28;20335;-67
2021/10/29 13:56:25;;;;;;;8.88;5.25;;;14.30;99.90;;;;;;4981158;28;20019;-70
2021/10/29 14:29:11;;;;;;;8.77;4.70;;;14.10;99.90;;;;;;4982033;28;20080;-67
2021/10/29 14:31:48;;;;;;;8.77;5.47;;;14.10;99.90;;;;;;4981280;28;20429;-68
2021/10/29 14:34:20;;;;;;;8.43;4.40;;;14.10;99.90;;;;;;4981068;28;20107;-68
2021/10/29 14:36:56;;;;;;;8.45;3.92;;;14.00;99.90;;;;;;4981034;28;20027;-68
2021/10/29 14:42:03;;;;;;;10.23;4.75;;;14.00;99.90;;;;;;4980423;28;20074;-68
2021/10/29 14:45:01;;;;;;;11.25;4.65;;;13.90;99.90;;;;;;4980893;28;20022;-67
2021/10/29 15:03:43;;;;;;;12.50;4.38;;;13.90;99.90;;;;;;4980999;28;19978;-67
2021/10/29 15:25:39;;;;;;;12.52;5.43;;;13.50;99.90;;;;;;4949598;28;20126;-68
2021/10/29 15:28:17;;;;;;;7.63;4.07;;;13.50;99.90;;;;;;4980092;28;20319;-67
2021/10/29 15:44:13;;;;;;;7.73;3.87;;;13.30;99.90;;;;;;4980491;28;20100;-66
2021/10/29 15:51:46;;;;;;;9.93;4.95;;;13.20;99.90;;;;;;4980334;28;20026;-65
2021/10/29 15:54:16;;;;;;;9.85;4.75;;;13.20;99.90;;;;;;4980603;28;20324;-65
2021/10/29 15:56:48;;;;;;;9.38;3.80;;;13.10;99.90;;;;;;4979770;28;20419;-65
2021/10/29 16:02:16;;;;;;;7.43;4.55;;;13.00;99.90;;;;;;4978690;28;20443;-66
2021/10/29 16:18:33;;;;;;;8.27;4.25;;;12.70;99.90;;;;;;4978769;28;20030;-66
2021/10/29 16:21:00;;;;;;;7.15;3.63;;;12.60;99.90;;;;;;4962003;28;20023;-66
2021/10/29 16:23:29;;;;;;;8.70;3.97;;;12.60;99.90;;;;;;4979529;28;20026;-66
2021/10/29 16:26:12;;;;;;;9.75;4.22;;;12.60;99.90;;;;;;4979906;28;20026;-66
2021/10/29 16:28:42;;;;;;;9.80;3.67;;;12.60;99.90;;;;;;4979449;28;20042;-66
2021/10/29 16:31:12;;;;;;;7.85;3.38;;;12.60;99.90;;;;;;4979290;28;20033;-66
2021/10/29 16:33:40;;;;;;;5.93;3.70;;;12.70;99.90;;;;;;4962749;28;20417;-65
2021/10/29 16:36:09;;;;;;;10.23;3.38;;;12.70;99.90;;;;;;4962337;28;20058;-66
2021/10/29 16:38:36;;;;;;;8.30;3.70;;;12.70;99.90;;;;;;4979397;28;20023;-66
2021/10/29 16:41:03;;;;;;;22.75;8.75;;;12.60;99.90;;;;;;4978149;28;20102;-66
2021/10/29 16:43:35;;;;;;;13.70;5.13;;;12.60;99.90;;;;;;4978254;28;20430;-66
2021/10/29 16:46:05;;;;;;;27.00;9.70;;;12.60;99.90;;;;;;4978433;28;20319;-66
2021/10/29 16:48:33;;;;;;;23.83;8.82;;;12.70;99.90;;;;;;4978327;28;20031;-66
2021/10/29 16:51:01;;;;;;;17.88;5.45;;;12.60;99.90;;;;;;4978613;28;20038;-66
2021/10/29 16:53:28;;;;;;;14.15;6.30;;;12.60;99.90;;;;;;4978057;28;20095;-66
2021/10/29 16:56:00;;;;;;;16.00;7.03;;;12.60;99.90;;;;;;4978565;28;20015;-65
2021/10/29 16:58:27;;;;;;;12.35;6.45;;;12.60;99.90;;;;;;4978161;28;20428;-66
2021/10/29 17:00:54;;;;;;;20.92;6.40;;;12.60;99.90;;;;;;4978485;28;20023;-66
2021/10/29 17:03:24;;;;;;;9.73;4.97;;;12.60;99.90;;;;;;4978610;28;20026;-66
2021/10/29 17:05:55;;;;;;;8.52;4.55;;;12.60;99.90;;;;;;4979298;28;20093;-66
2021/10/29 17:08:23;;;;;;;7.90;4.07;;;12.50;99.90;;;;;;4979376;28;20436;-66
2021/10/29 17:10:51;;;;;;;8.43;4.40;;;12.50;99.90;;;;;;4979229;28;20026;-66
2021/10/29 17:13:18;;;;;;;10.35;4.70;;;12.50;99.90;;;;;;4961349;28;20514;-67
2021/10/29 17:15:46;;;;;;;8.77;4.20;;;12.40;99.90;;;;;;4978171;28;20110;-66
2021/10/29 17:18:14;;;;;;;9.10;4.47;;;12.30;99.90;;;;;;4978699;28;20026;-66
2021/10/29 17:20:41;;;;;;;10.27;4.65;;;12.30;99.90;;;;;;4979130;28;20042;-66
2021/10/29 17:23:09;;;;;;;12.52;4.90;;;12.30;99.90;;;;;;4977978;28;20105;-67
2021/10/29 17:25:36;;;;;;;9.32;4.30;;;12.20;99.90;;;;;;4977642;28;20041;-67
2021/10/29 17:28:04;;;;;;;8.73;5.00;;;12.20;99.90;;;;;;4978138;28;20019;-66
2021/10/29 17:30:32;;;;;;;10.52;4.13;;;12.20;99.90;;;;;;4960606;28;20411;-66